Time;durP1;ratioP1;P1;durP2;ratioP2;P2;SDS_P1;SDS_P2;PMS_P1;PMS_P2;Temp;Humidity;BMP_temperature;BMP_pressure;BME280_temperature;BME280_humidity;BME280_pressure;Samples;Min_cycle;Max_cycle;Signal;HPM_P1;HPM_P2
2023/07/10 00:03:14;;;;;;;5.07;2.80;;;30.00;70.00;;;;;;10064731;23;20620;-60
2023/07/10 00:08:05;;;;;;;4.30;3.00;;;29.90;69.40;;;;;;10042569;28;20036;-60
2023/07/10 00:12:56;;;;;;;5.38;2.80;;;30.00;69.40;;;;;;10031710;28;20063;-58
2023/07/10 00:17:50;;;;;;;5.75;3.10;;;30.00;69.50;;;;;;10056451;28;20100;-60
2023/07/10 00:22:41;;;;;;;6.43;2.88;;;30.00;69.60;;;;;;10051854;28;20045;-60
2023/07/10 00:27:31;;;;;;;7.68;3.45;;;30.00;69.80;;;;;;10044556;28;20033;-60
2023/07/10 00:32:22;;;;;;;2.95;2.63;;;29.90;70.00;;;;;;10054680;28;20423;-60
2023/07/10 00:37:12;;;;;;;8.00;3.38;;;29.80;70.10;;;;;;10058014;28;20040;-60
2023/07/10 00:42:20;;;;;;;4.25;3.38;;;29.70;70.00;;;;;;10055227;28;20030;-60
2023/07/10 00:47:27;;;;;;;4.32;3.08;;;29.50;70.50;;;;;;10052438;28;20029;-61
2023/07/10 00:52:20;;;;;;;7.53;3.75;;;29.30;70.90;;;;;;10048028;28;20048;-59
2023/07/10 00:57:19;;;;;;;7.70;3.63;;;29.40;70.70;;;;;;10059469;28;20029;-61
2023/07/10 01:02:20;;;;;;;7.05;3.65;;;29.20;71.00;;;;;;10061716;28;20045;-61
2023/07/10 01:07:13;;;;;;;7.00;3.55;;;29.00;71.60;;;;;;10060981;28;20038;-59
2023/07/10 01:12:05;;;;;;;7.18;3.20;;;28.90;72.20;;;;;;10062960;28;20041;-60
2023/07/10 01:16:56;;;;;;;4.75;3.60;;;28.90;72.40;;;;;;10061360;28;20018;-62
2023/07/10 01:21:47;;;;;;;6.05;3.33;;;28.90;72.60;;;;;;10062299;28;20483;-60
2023/07/10 01:26:39;;;;;;;6.57;3.55;;;28.80;72.60;;;;;;10062708;28;20075;-64
2023/07/10 01:31:31;;;;;;;5.72;3.00;;;28.90;73.50;;;;;;10056811;28;20095;-61
2023/07/10 01:36:24;;;;;;;8.77;3.67;;;28.70;73.10;;;;;;10062026;28;20036;-59
2023/07/10 01:41:36;;;;;;;7.77;3.37;;;28.90;73.50;;;;;;10061799;28;20044;-59
2023/07/10 01:46:28;;;;;;;4.85;2.60;;;28.90;73.60;;;;;;10059080;28;20083;-59
2023/07/10 01:51:21;;;;;;;4.90;2.90;;;28.70;73.90;;;;;;10062555;28;20570;-60
2023/07/10 01:56:14;;;;;;;6.22;3.22;;;28.60;74.20;;;;;;10059255;28;20253;-60
2023/07/10 02:01:04;;;;;;;4.88;2.95;;;28.60;74.60;;;;;;10057976;28;20171;-59
2023/07/10 02:05:55;;;;;;;5.50;3.00;;;28.40;74.90;;;;;;10058536;28;20144;-60
2023/07/10 02:10:46;;;;;;;5.32;2.90;;;28.50;75.10;;;;;;10073059;28;20063;-60
2023/07/10 02:15:36;;;;;;;4.20;3.10;;;28.50;75.60;;;;;;10061127;28;20033;-61
2023/07/10 02:20:27;;;;;;;3.78;2.50;;;28.70;75.70;;;;;;10059516;28;20033;-59
2023/07/10 02:25:18;;;;;;;4.70;3.13;;;28.50;76.00;;;;;;10063610;28;20637;-59
2023/07/10 02:30:09;;;;;;;4.43;2.53;;;28.30;76.30;;;;;;10057977;28;20029;-60
2023/07/10 02:34:59;;;;;;;4.43;3.05;;;28.30;76.30;;;;;;10057484;28;20358;-60
2023/07/10 02:39:50;;;;;;;7.90;3.60;;;28.30;76.60;;;;;;10056505;28;20029;-59
2023/07/10 02:44:40;;;;;;;6.68;3.03;;;28.70;76.20;;;;;;10059247;28;20403;-61
2023/07/10 02:49:31;;;;;;;6.47;3.25;;;28.50;76.50;;;;;;10055954;28;20034;-59
2023/07/10 02:54:21;;;;;;;4.65;3.03;;;28.40;76.70;;;;;;10057556;28;20049;-60
2023/07/10 02:59:12;;;;;;;4.47;2.55;;;28.50;76.90;;;;;;10058675;28;20037;-59
2023/07/10 03:04:03;;;;;;;4.13;2.63;;;28.80;76.50;;;;;;10045383;28;20148;-60
2023/07/10 03:08:54;;;;;;;4.18;2.67;;;28.70;76.90;;;;;;10038290;28;20110;-61
2023/07/10 03:13:44;;;;;;;4.78;3.00;;;28.40;77.30;;;;;;10050539;28;20064;-59
2023/07/10 03:18:36;;;;;;;5.10;3.35;;;28.40;77.40;;;;;;10049246;28;20728;-59
2023/07/10 03:23:27;;;;;;;3.83;2.67;;;28.40;77.30;;;;;;10049745;28;20112;-60
2023/07/10 03:28:18;;;;;;;3.78;2.42;;;28.40;77.30;;;;;;10052460;28;20103;-60
2023/07/10 03:33:14;;;;;;;5.72;2.90;;;28.50;77.40;;;;;;10053447;28;20041;-60
2023/07/10 03:38:05;;;;;;;4.88;3.10;;;28.40;77.40;;;;;;10054435;28;20026;-60
2023/07/10 03:42:56;;;;;;;5.40;3.58;;;28.20;78.00;;;;;;10051742;28;20068;-61
2023/07/10 03:47:46;;;;;;;4.85;2.92;;;27.80;79.20;;;;;;10055010;28;20057;-60
2023/07/10 03:52:37;;;;;;;6.22;3.10;;;27.70;79.90;;;;;;10055295;28;20484;-60
2023/07/10 03:57:28;;;;;;;5.35;2.85;;;27.80;80.10;;;;;;10056281;28;20021;-60
2023/07/10 04:02:18;;;;;;;4.25;3.15;;;27.60;80.80;;;;;;10065593;28;20507;-60
2023/07/10 04:07:09;;;;;;;3.70;3.08;;;27.70;81.30;;;;;;10043200;28;20040;-60
2023/07/10 04:11:59;;;;;;;5.78;3.58;;;27.60;81.80;;;;;;10037347;28;20135;-60
2023/07/10 04:16:53;;;;;;;5.45;3.13;;;27.80;82.10;;;;;;10042654;28;20029;-60
2023/07/10 04:21:43;;;;;;;5.88;3.08;;;27.60;82.60;;;;;;10046071;28;20091;-60
2023/07/10 04:26:34;;;;;;;7.78;3.53;;;27.40;83.50;;;;;;10052638;28;20029;-61
2023/07/10 04:31:26;;;;;;;5.65;3.17;;;27.30;84.40;;;;;;10062039;28;20053;-61
2023/07/10 04:36:17;;;;;;;6.38;3.70;;;27.50;84.10;;;;;;10064572;28;20040;-61
2023/07/10 04:41:11;;;;;;;6.10;3.22;;;27.60;84.20;;;;;;10053560;28;20025;-62
2023/07/10 04:46:05;;;;;;;;;;;27.60;84.60;;;;;;10053684;28;20065;-60
2023/07/10 04:50:58;;;;;;;5.80;3.10;;;27.60;84.90;;;;;;10053110;28;19925;-60
2023/07/10 04:55:50;;;;;;;6.00;2.97;;;27.60;84.90;;;;;;10055926;28;20028;-61
2023/07/10 05:00:41;;;;;;;8.43;3.60;;;27.60;85.10;;;;;;10058910;28;20033;-59
2023/07/10 05:05:32;;;;;;;4.85;3.28;;;27.80;85.40;;;;;;10056507;28;20045;-60
2023/07/10 05:10:23;;;;;;;5.88;3.25;;;27.70;85.80;;;;;;10063099;28;20045;-61
2023/07/10 05:15:14;;;;;;;4.40;3.15;;;27.80;86.20;;;;;;10060118;28;20112;-60
2023/07/10 05:20:05;;;;;;;7.85;3.45;;;27.80;86.30;;;;;;10061635;28;20513;-59
2023/07/10 05:24:55;;;;;;;4.55;3.30;;;27.80;86.20;;;;;;10057729;28;20034;-60
2023/07/10 05:29:46;;;;;;;7.53;3.92;;;27.80;86.40;;;;;;10056905;28;20026;-59
2023/07/10 05:34:37;;;;;;;6.35;4.72;;;27.60;86.80;;;;;;10062414;28;20037;-60
2023/07/10 05:39:29;;;;;;;5.63;3.58;;;27.60;86.80;;;;;;10060679;28;20408;-60
2023/07/10 05:44:20;;;;;;;5.45;3.38;;;27.40;87.00;;;;;;10057601;28;20041;-62
2023/07/10 05:49:10;;;;;;;5.55;4.15;;;27.30;87.40;;;;;;10047184;28;20037;-59
2023/07/10 05:54:02;;;;;;;7.82;3.72;;;27.30;87.50;;;;;;10056390;28;20052;-59
2023/07/10 05:58:52;;;;;;;5.43;3.40;;;27.20;87.70;;;;;;10056660;28;20071;-60
2023/07/10 06:03:43;;;;;;;10.32;4.70;;;26.90;88.50;;;;;;10055980;28;20195;-59
2023/07/10 06:08:35;;;;;;;8.23;3.60;;;26.80;89.20;;;;;;10050888;28;20151;-60
2023/07/10 06:13:26;;;;;;;5.90;4.35;;;27.00;89.30;;;;;;10047942;28;20057;-61
2023/07/10 06:18:18;;;;;;;4.57;3.70;;;27.10;89.30;;;;;;10056048;28;20021;-61
2023/07/10 06:23:09;;;;;;;5.75;3.95;;;27.30;89.40;;;;;;10054030;28;20033;-60
2023/07/10 06:27:59;;;;;;;6.97;3.38;;;27.40;89.60;;;;;;10060709;28;20040;-61
2023/07/10 06:32:51;;;;;;;5.13;3.72;;;27.70;89.40;;;;;;10060378;28;20041;-62
2023/07/10 06:37:43;;;;;;;6.10;3.60;;;27.80;89.40;;;;;;10062992;28;20051;-60
2023/07/10 06:42:34;;;;;;;7.68;3.33;;;27.80;89.50;;;;;;10059946;28;20045;-60
2023/07/10 06:47:24;;;;;;;6.00;3.63;;;27.90;89.60;;;;;;10041645;28;20438;-61
2023/07/10 06:52:15;;;;;;;4.88;3.35;;;27.80;89.50;;;;;;10055248;28;20503;-61
2023/07/10 06:57:05;;;;;;;6.43;4.13;;;27.70;89.80;;;;;;10057838;28;20042;-61
2023/07/10 07:01:56;;;;;;;7.45;3.47;;;27.70;89.90;;;;;;10058080;28;20121;-60
2023/07/10 07:06:49;;;;;;;8.18;3.30;;;27.80;89.70;;;;;;10058635;28;20104;-60
2023/07/10 07:11:40;;;;;;;6.27;3.77;;;28.00;89.70;;;;;;10056437;28;20083;-60
2023/07/10 07:16:31;;;;;;;4.70;3.17;;;27.80;89.90;;;;;;10049834;28;20082;-61
2023/07/10 07:21:21;;;;;;;8.32;3.25;;;28.10;89.80;;;;;;10049790;28;20028;-62
2023/07/10 07:26:12;;;;;;;4.88;3.15;;;28.40;89.10;;;;;;10067524;28;20041;-60
2023/07/10 07:31:05;;;;;;;4.55;2.83;;;28.30;89.40;;;;;;10046065;28;20510;-60
2023/07/10 07:35:58;;;;;;;5.18;3.17;;;28.50;89.20;;;;;;10054438;28;20061;-62
2023/07/10 07:40:49;;;;;;;5.32;3.08;;;28.70;89.20;;;;;;10055963;28;20067;-61
2023/07/10 07:45:39;;;;;;;6.55;3.53;;;28.70;89.30;;;;;;10054852;28;20028;-60
2023/07/10 07:50:30;;;;;;;5.38;3.28;;;28.70;89.00;;;;;;10063194;28;20411;-61
2023/07/10 07:55:21;;;;;;;5.65;3.40;;;28.80;89.00;;;;;;10056905;28;20029;-60
2023/07/10 08:00:12;;;;;;;5.28;2.90;;;28.80;88.90;;;;;;10058293;28;20375;-61
2023/07/10 08:05:03;;;;;;;6.38;3.63;;;28.80;88.80;;;;;;10054392;28;20037;-61
2023/07/10 08:09:53;;;;;;;5.07;3.15;;;29.00;88.50;;;;;;10055993;28;20033;-61
2023/07/10 08:14:44;;;;;;;6.35;3.83;;;29.10;88.20;;;;;;10062221;28;20048;-61
2023/07/10 08:19:35;;;;;;;6.07;3.10;;;29.10;87.90;;;;;;10049804;28;20052;-62
2023/07/10 08:24:25;;;;;;;5.00;3.03;;;29.30;87.60;;;;;;10051446;28;20041;-60
2023/07/10 08:29:34;;;;;;;4.70;3.50;;;29.40;87.50;;;;;;10052193;28;20071;-60
2023/07/10 08:34:27;;;;;;;6.07;4.32;;;29.60;87.30;;;;;;10053417;28;20132;-60
2023/07/10 08:39:20;;;;;;;7.22;3.13;;;29.80;86.90;;;;;;10054950;28;20033;-59
2023/07/10 08:44:11;;;;;;;4.40;3.20;;;29.60;87.50;;;;;;10051370;28;20611;-61
2023/07/10 08:49:10;;;;;;;6.22;3.22;;;29.60;86.80;;;;;;10043107;28;20025;-61
2023/07/10 08:54:10;;;;;;;4.75;3.47;;;29.70;86.70;;;;;;10045875;28;20041;-60
2023/07/10 08:59:34;;;;;;;6.38;4.35;;;29.70;86.50;;;;;;10053469;28;20060;-60
2023/07/10 09:04:26;;;;;;;5.47;3.78;;;29.70;86.70;;;;;;10042101;28;20133;-60
2023/07/10 09:09:26;;;;;;;3.97;3.35;;;29.70;86.70;;;;;;10042853;28;20030;-60
2023/07/10 09:14:24;;;;;;;11.48;3.72;;;29.80;86.60;;;;;;10053637;28;20049;-61
2023/07/10 09:19:18;;;;;;;6.68;3.67;;;30.20;86.10;;;;;;10051736;28;20108;-60
2023/07/10 09:24:21;;;;;;;6.45;3.83;;;30.10;85.90;;;;;;10062936;28;20033;-60
2023/07/10 09:29:15;;;;;;;4.72;3.80;;;30.20;85.40;;;;;;10058092;28;20061;-60
2023/07/10 09:34:10;;;;;;;3.97;3.30;;;30.30;85.60;;;;;;10055643;28;20045;-60
2023/07/10 09:39:02;;;;;;;5.85;4.32;;;30.50;85.50;;;;;;10061153;28;20039;-60
2023/07/10 09:44:03;;;;;;;5.40;3.70;;;30.80;85.10;;;;;;10057332;28;20032;-60
2023/07/10 09:48:56;;;;;;;6.50;3.83;;;31.10;84.70;;;;;;10060277;28;20033;-60
2023/07/10 09:53:52;;;;;;;4.87;3.90;;;31.00;84.40;;;;;;10061515;28;20033;-60
2023/07/10 09:58:46;;;;;;;8.57;4.65;;;30.80;84.60;;;;;;10057217;28;20039;-61
2023/07/10 10:03:41;;;;;;;5.95;3.83;;;30.90;84.70;;;;;;10057103;28;20060;-60
2023/07/10 10:08:45;;;;;;;5.63;3.70;;;30.80;84.60;;;;;;10056519;28;20026;-61
2023/07/10 10:13:41;;;;;;;5.22;3.90;;;30.80;84.30;;;;;;10061298;28;20041;-61
2023/07/10 10:18:47;;;;;;;7.50;3.63;;;30.80;84.50;;;;;;10060578;28;20049;-61
2023/07/10 10:23:39;;;;;;;5.03;3.40;;;31.00;83.30;;;;;;10057264;28;20029;-61
2023/07/10 10:28:54;;;;;;;4.90;3.67;;;30.80;83.10;;;;;;10059801;28;20037;-60
2023/07/10 10:34:22;;;;;;;4.13;2.90;;;30.90;82.80;;;;;;10066202;28;20033;-60
2023/07/10 10:39:29;;;;;;;4.75;3.38;;;31.20;81.90;;;;;;10056910;28;20049;-59
2023/07/10 10:44:55;;;;;;;5.65;3.33;;;31.20;81.20;;;;;;10054912;28;20025;-61
2023/07/10 10:49:57;;;;;;;6.25;3.42;;;31.60;79.80;;;;;;10045317;28;20128;-61
2023/07/10 10:54:59;;;;;;;4.20;3.08;;;31.30;78.60;;;;;;10056065;28;20084;-60
2023/07/10 11:00:27;;;;;;;4.22;3.00;;;31.30;77.20;;;;;;10058235;28;20429;-61
2023/07/10 11:05:30;;;;;;;7.10;3.28;;;31.60;74.30;;;;;;10003496;28;20053;-60
2023/07/10 11:10:32;;;;;;;7.22;3.20;;;31.70;73.40;;;;;;10055852;28;20023;-60
2023/07/10 11:15:25;;;;;;;3.40;2.85;;;31.80;71.70;;;;;;10048561;28;20383;-59
2023/07/10 11:20:17;;;;;;;7.50;3.80;;;31.80;71.00;;;;;;10049239;28;20112;-60
2023/07/10 11:25:38;;;;;;;3.58;3.05;;;31.80;70.40;;;;;;10050977;28;20034;-58
2023/07/10 11:30:34;;;;;;;3.97;3.05;;;31.90;68.90;;;;;;10047662;28;20041;-60
2023/07/10 11:35:25;;;;;;;4.75;3.13;;;32.10;68.80;;;;;;10052383;28;20034;-59
2023/07/10 11:40:28;;;;;;;4.85;3.35;;;32.30;68.30;;;;;;10055956;28;20100;-60
2023/07/10 11:45:26;;;;;;;3.23;2.73;;;32.50;67.50;;;;;;10049710;28;20096;-60
2023/07/10 11:50:26;;;;;;;6.28;3.35;;;32.60;67.60;;;;;;10047595;28;20039;-60
2023/07/10 11:55:25;;;;;;;5.32;3.38;;;32.60;67.70;;;;;;10056601;28;20051;-61
2023/07/10 12:00:23;;;;;;;9.05;3.70;;;32.80;67.30;;;;;;10071594;28;20068;-60
2023/07/10 12:05:22;;;;;;;4.70;3.28;;;32.70;67.00;;;;;;10047172;28;20132;-60
2023/07/10 12:10:14;;;;;;;5.95;3.38;;;32.80;66.90;;;;;;10039348;28;20068;-60
2023/07/10 12:15:05;;;;;;;4.72;3.30;;;33.30;66.40;;;;;;10041088;28;20091;-60
2023/07/10 12:20:00;;;;;;;5.63;3.08;;;33.40;65.90;;;;;;10048420;28;20045;-62
2023/07/10 12:24:58;;;;;;;4.20;2.90;;;33.80;65.40;;;;;;10050267;28;20812;-60
2023/07/10 12:29:55;;;;;;;3.72;3.00;;;33.90;65.00;;;;;;10052970;28;20684;-61
2023/07/10 12:34:46;;;;;;;2.95;2.58;;;34.10;64.70;;;;;;10053415;28;20094;-61
2023/07/10 12:39:37;;;;;;;4.25;3.03;;;34.30;64.30;;;;;;10055950;28;20086;-60
2023/07/10 12:44:30;;;;;;;4.45;3.63;;;34.60;63.80;;;;;;10050834;28;20033;-59
2023/07/10 12:49:23;;;;;;;;;;;34.50;63.50;;;;;;10052246;28;20025;-60
2023/07/10 12:54:25;;;;;;;3.50;2.55;;;34.70;63.00;;;;;;10060682;28;19932;-59
2023/07/10 12:59:20;;;;;;;4.35;2.60;;;35.40;63.30;;;;;;10054421;28;20030;-61
2023/07/10 13:04:25;;;;;;;3.55;2.70;;;35.80;62.30;;;;;;10062999;28;20037;-60
2023/07/10 13:09:22;;;;;;;5.10;3.20;;;36.10;61.30;;;;;;10062445;28;20604;-60
2023/07/10 13:14:30;;;;;;;4.10;2.72;;;36.60;60.50;;;;;;10050562;28;20591;-60
2023/07/10 13:19:20;;;;;;;4.63;2.90;;;36.00;59.80;;;;;;10050527;28;20037;-59
2023/07/10 13:24:11;;;;;;;5.23;3.17;;;36.50;60.30;;;;;;10062786;28;20504;-60
2023/07/10 13:29:01;;;;;;;3.30;3.00;;;37.30;58.90;;;;;;10060925;28;20166;-61
2023/07/10 13:33:52;;;;;;;6.30;3.17;;;37.70;58.30;;;;;;10055424;28;20037;-60
2023/07/10 13:38:43;;;;;;;4.17;3.17;;;37.90;57.50;;;;;;10054744;28;20483;-60
2023/07/10 13:43:34;;;;;;;4.65;2.97;;;37.60;57.50;;;;;;10057247;28;20044;-60
2023/07/10 13:48:25;;;;;;;4.97;2.87;;;38.40;56.80;;;;;;10058370;28;20048;-61
2023/07/10 13:53:22;;;;;;;6.57;3.47;;;39.20;56.10;;;;;;10058011;28;20296;-60
2023/07/10 13:58:21;;;;;;;3.15;2.70;;;39.10;55.20;;;;;;10057059;28;20045;-60
2023/07/10 14:03:14;;;;;;;4.15;2.60;;;39.30;54.70;;;;;;10054374;28;20048;-60
2023/07/10 14:08:25;;;;;;;2.88;2.30;;;39.00;54.30;;;;;;10058910;28;20034;-60
2023/07/10 14:13:17;;;;;;;4.57;2.65;;;37.70;54.30;;;;;;10053368;28;20688;-61
2023/07/10 14:18:21;;;;;;;4.28;2.72;;;37.70;54.10;;;;;;10056403;28;20026;-60
2023/07/10 14:23:16;;;;;;;2.35;2.15;;;38.00;53.20;;;;;;10056427;28;20403;-61
2023/07/10 14:28:19;;;;;;;4.82;2.92;;;38.20;52.80;;;;;;10060760;28;20021;-61
2023/07/10 14:33:11;;;;;;;3.25;2.92;;;38.70;52.20;;;;;;10059990;28;20402;-60
2023/07/10 14:38:17;;;;;;;6.20;3.10;;;38.60;52.50;;;;;;10059863;28;20035;-61
2023/07/10 14:43:11;;;;;;;3.08;2.47;;;38.20;52.70;;;;;;10058206;28;20033;-60
2023/07/10 14:48:02;;;;;;;2.75;2.55;;;36.90;54.30;;;;;;10059042;28;20030;-60
2023/07/10 14:52:53;;;;;;;4.03;2.75;;;36.60;54.60;;;;;;10056492;28;20030;-61
2023/07/10 14:57:44;;;;;;;4.28;2.38;;;36.50;54.50;;;;;;10059463;28;20021;-61
2023/07/10 15:02:34;;;;;;;3.38;2.45;;;37.30;53.90;;;;;;10057027;28;20046;-60
2023/07/10 15:07:26;;;;;;;3.25;2.40;;;36.70;54.30;;;;;;10058954;28;20126;-60
2023/07/10 15:12:20;;;;;;;3.75;2.55;;;35.80;55.20;;;;;;10058703;28;20158;-61
2023/07/10 15:17:16;;;;;;;3.47;2.78;;;35.50;55.40;;;;;;10048230;28;20022;-62
2023/07/10 15:22:16;;;;;;;4.95;2.75;;;35.10;55.40;;;;;;10049344;28;20601;-61
2023/07/10 15:27:06;;;;;;;2.70;2.30;;;35.00;55.70;;;;;;10045748;28;20048;-60
2023/07/10 15:32:21;;;;;;;3.90;2.42;;;34.60;55.80;;;;;;10057545;28;20045;-61
2023/07/10 15:37:23;;;;;;;5.45;2.92;;;34.80;55.80;;;;;;10053179;28;20029;-62
2023/07/10 15:42:15;;;;;;;;;;;36.80;54.30;;;;;;10056420;28;20506;-60
2023/07/10 15:47:15;;;;;;;2.87;2.00;;;37.30;53.70;;;;;;10053289;28;19920;-60
2023/07/10 15:52:23;;;;;;;6.00;2.53;;;37.00;54.60;;;;;;10054741;28;20515;-61
2023/07/10 15:57:14;;;;;;;4.32;2.58;;;37.70;54.00;;;;;;10054600;28;20020;-60
2023/07/10 16:02:25;;;;;;;3.50;2.23;;;38.60;53.20;;;;;;10054481;28;20046;-62
2023/07/10 16:07:15;;;;;;;3.28;2.55;;;38.20;53.00;;;;;;10057471;28;20461;-61
2023/07/10 16:12:11;;;;;;;3.83;2.10;;;38.70;53.00;;;;;;10061371;28;20418;-61
2023/07/10 16:17:02;;;;;;;2.72;1.98;;;39.30;52.40;;;;;;10051964;28;20030;-63
2023/07/10 16:21:52;;;;;;;3.50;2.50;;;39.70;51.80;;;;;;10052314;28;20498;-62
2023/07/10 16:26:44;;;;;;;3.13;2.42;;;38.30;52.40;;;;;;10056906;28;20485;-61
2023/07/10 16:31:35;;;;;;;2.50;2.05;;;37.70;53.00;;;;;;10052243;28;20044;-61
2023/07/10 16:36:26;;;;;;;3.17;2.30;;;38.50;51.60;;;;;;10056388;28;20034;-61
2023/07/10 16:41:21;;;;;;;3.10;2.17;;;39.20;50.90;;;;;;10055198;28;20037;-61
2023/07/10 16:46:12;;;;;;;4.20;2.35;;;39.30;50.90;;;;;;10051099;28;20395;-61
2023/07/10 16:51:09;;;;;;;4.45;2.53;;;39.40;50.70;;;;;;10043892;28;20029;-61
2023/07/10 16:56:03;;;;;;;4.28;2.72;;;38.80;50.70;;;;;;10062760;28;20065;-60
2023/07/10 17:00:54;;;;;;;2.85;2.15;;;38.90;50.80;;;;;;10056715;28;20476;-61
2023/07/10 17:05:45;;;;;;;5.40;3.13;;;38.90;50.50;;;;;;10055460;28;20128;-62
2023/07/10 17:10:36;;;;;;;4.00;2.33;;;38.80;50.50;;;;;;10050219;28;20112;-62
2023/07/10 17:15:28;;;;;;;2.87;2.20;;;39.10;50.20;;;;;;10051793;28;20063;-60
2023/07/10 17:20:19;;;;;;;3.55;2.55;;;38.60;50.40;;;;;;10052301;28;20030;-61
2023/07/10 17:25:14;;;;;;;5.03;3.20;;;38.50;50.70;;;;;;10053400;28;20128;-65
2023/07/10 17:30:08;;;;;;;4.22;2.50;;;37.90;50.70;;;;;;10056195;28;20030;-59
2023/07/10 17:34:59;;;;;;;6.75;2.40;;;37.30;51.20;;;;;;10046848;28;20088;-64
2023/07/10 17:39:50;;;;;;;3.80;2.20;;;36.90;51.30;;;;;;10062107;28;20022;-61
2023/07/10 17:44:40;;;;;;;5.30;3.08;;;36.70;51.50;;;;;;10077592;28;20040;-59
2023/07/10 17:49:31;;;;;;;4.43;3.17;;;36.60;51.60;;;;;;10055428;28;20399;-61
2023/07/10 17:54:26;;;;;;;3.97;2.65;;;36.40;51.60;;;;;;10057480;28;20042;-59
2023/07/10 17:59:17;;;;;;;4.85;2.83;;;35.70;52.00;;;;;;10055274;28;20560;-62
2023/07/10 18:04:15;;;;;;;4.72;2.92;;;35.20;52.60;;;;;;10059613;28;20152;-60
2023/07/10 18:09:21;;;;;;;6.32;3.22;;;34.60;53.20;;;;;;10062382;28;20646;-61
2023/07/10 18:14:13;;;;;;;3.35;2.10;;;33.90;53.70;;;;;;10048979;28;20476;-60
2023/07/10 18:19:15;;;;;;;6.15;2.60;;;33.40;53.90;;;;;;10067719;28;20045;-59
2023/07/10 18:24:14;;;;;;;5.63;2.50;;;33.20;54.10;;;;;;10059051;28;20037;-61
2023/07/10 18:29:05;;;;;;;6.57;2.78;;;32.80;54.20;;;;;;10059855;28;20049;-60
2023/07/10 18:33:56;;;;;;;3.60;2.40;;;32.80;54.50;;;;;;10055581;28;20572;-60
2023/07/10 18:38:46;;;;;;;3.78;2.40;;;32.70;54.60;;;;;;10055933;28;20321;-60
2023/07/10 18:43:38;;;;;;;4.18;2.22;;;32.40;54.90;;;;;;10054656;28;20029;-60
2023/07/10 18:48:32;;;;;;;5.43;2.88;;;32.40;54.90;;;;;;10057825;28;20029;-61
2023/07/10 18:53:28;;;;;;;3.65;2.97;;;32.50;54.90;;;;;;10057127;28;20033;-61
2023/07/10 18:58:26;;;;;;;4.85;2.42;;;32.30;55.10;;;;;;10050542;28;20033;-61
2023/07/10 19:03:18;;;;;;;2.95;2.20;;;32.30;55.30;;;;;;10067471;28;20046;-62
2023/07/10 19:08:13;;;;;;;5.53;2.42;;;32.10;55.50;;;;;;10056833;28;20078;-62
2023/07/10 19:13:21;;;;;;;4.57;2.30;;;32.10;55.60;;;;;;10058685;28;20049;-61
2023/07/10 19:18:15;;;;;;;2.97;2.08;;;31.90;56.00;;;;;;10047717;28;20032;-62
2023/07/10 19:23:22;;;;;;;2.78;2.17;;;31.80;56.20;;;;;;10049436;28;20491;-61
2023/07/10 19:28:16;;;;;;;4.20;1.88;;;31.70;56.30;;;;;;10057275;28;20048;-60
2023/07/10 19:33:15;;;;;;;3.83;2.33;;;31.70;56.50;;;;;;10058414;28;20072;-63
2023/07/10 19:38:15;;;;;;;2.78;1.90;;;31.50;56.60;;;;;;10058833;28;20643;-62
2023/07/10 19:43:06;;;;;;;4.43;2.60;;;31.50;56.60;;;;;;10058150;28;20533;-63
2023/07/10 19:47:57;;;;;;;2.78;1.90;;;31.60;56.60;;;;;;10057119;28;20030;-62
2023/07/10 19:52:48;;;;;;;5.40;3.08;;;31.40;57.10;;;;;;10055710;28;20037;-62
2023/07/10 19:57:40;;;;;;;3.53;2.33;;;31.40;57.20;;;;;;10055808;28;20063;-63
2023/07/10 20:02:31;;;;;;;7.32;2.83;;;31.20;57.40;;;;;;10041609;28;20038;-63
2023/07/10 20:07:22;;;;;;;6.35;2.45;;;31.20;57.80;;;;;;10045373;28;20033;-60
2023/07/10 20:12:21;;;;;;;5.05;2.70;;;31.10;57.90;;;;;;10046059;28;20152;-61
2023/07/10 20:17:32;;;;;;;4.00;3.05;;;31.00;58.20;;;;;;10039959;28;20163;-60
2023/07/10 20:22:23;;;;;;;5.07;2.55;;;30.90;58.30;;;;;;10043038;28;20042;-59
2023/07/10 20:27:14;;;;;;;4.38;2.33;;;30.80;58.40;;;;;;10052640;28;20030;-63
2023/07/10 20:32:12;;;;;;;6.43;2.75;;;30.70;58.40;;;;;;10053099;28;20041;-63
2023/07/10 20:37:04;;;;;;;6.05;3.08;;;30.80;58.50;;;;;;10052861;28;20026;-62
2023/07/10 20:41:57;;;;;;;7.20;2.30;;;30.80;58.60;;;;;;10064472;28;20110;-61
2023/07/10 20:46:51;;;;;;;4.93;2.50;;;30.60;58.60;;;;;;10040203;28;20025;-63
2023/07/10 20:51:42;;;;;;;3.05;2.35;;;30.60;58.70;;;;;;10044469;28;20030;-62
2023/07/10 20:56:34;;;;;;;3.92;2.40;;;30.60;58.80;;;;;;10057788;28;20034;-62
2023/07/10 21:01:28;;;;;;;4.70;2.72;;;30.60;58.80;;;;;;10058842;28;20111;-62
2023/07/10 21:06:23;;;;;;;5.13;3.53;;;30.50;58.90;;;;;;10060127;28;20068;-62
2023/07/10 21:11:20;;;;;;;8.48;4.50;;;30.40;58.90;;;;;;10062990;28;20459;-60
2023/07/10 21:16:16;;;;;;;6.70;3.33;;;30.30;59.20;;;;;;10063731;28;20033;-60
2023/07/10 21:21:08;;;;;;;3.25;2.22;;;30.20;59.30;;;;;;10059530;28;20025;-60
2023/07/10 21:26:11;;;;;;;4.30;2.97;;;30.20;59.20;;;;;;10063105;28;20046;-61
2023/07/10 21:31:02;;;;;;;3.00;2.35;;;30.20;59.20;;;;;;10062674;28;20029;-60
2023/07/10 21:35:58;;;;;;;9.25;2.83;;;30.20;59.30;;;;;;10063965;28;20071;-60
2023/07/10 21:40:51;;;;;;;3.38;2.50;;;30.20;59.50;;;;;;10062093;28;20033;-62
2023/07/10 21:45:42;;;;;;;4.72;2.42;;;30.00;59.70;;;;;;10062045;28;20383;-60
2023/07/10 21:50:32;;;;;;;3.20;2.20;;;30.00;59.90;;;;;;10069417;28;20043;-60
2023/07/10 21:55:23;;;;;;;4.78;2.90;;;30.00;59.90;;;;;;10057002;28;20124;-60
2023/07/10 22:00:17;;;;;;;4.28;2.42;;;29.90;60.10;;;;;;10058506;28;20174;-60
2023/07/10 22:05:12;;;;;;;4.13;3.40;;;29.80;60.20;;;;;;10052150;28;20045;-60
2023/07/10 22:10:03;;;;;;;5.55;2.92;;;29.80;60.30;;;;;;10037525;28;20038;-60
2023/07/10 22:14:53;;;;;;;6.68;2.83;;;29.80;60.40;;;;;;10054314;28;20057;-60
2023/07/10 22:19:49;;;;;;;5.38;2.85;;;29.70;60.40;;;;;;10059456;28;20065;-59
2023/07/10 22:24:39;;;;;;;4.25;2.55;;;29.70;60.60;;;;;;10056934;28;20486;-61
2023/07/10 22:29:30;;;;;;;5.85;3.22;;;29.60;60.80;;;;;;10060515;28;20040;-61
2023/07/10 22:34:20;;;;;;;3.95;2.75;;;29.70;60.80;;;;;;10065582;28;20041;-60
2023/07/10 22:39:11;;;;;;;5.32;2.95;;;29.60;61.00;;;;;;10055069;28;20480;-60
2023/07/10 22:44:09;;;;;;;8.38;2.65;;;29.50;61.00;;;;;;10055187;28;20462;-60
2023/07/10 22:49:02;;;;;;;4.45;2.42;;;29.50;61.30;;;;;;10054409;28;20022;-60
2023/07/10 22:53:52;;;;;;;4.15;2.50;;;29.40;61.40;;;;;;10055225;28;20033;-61
2023/07/10 22:58:44;;;;;;;3.13;2.47;;;29.30;61.50;;;;;;10057412;28;20029;-61
2023/07/10 23:03:35;;;;;;;4.05;3.50;;;29.30;61.60;;;;;;10062220;28;20061;-60
2023/07/10 23:08:26;;;;;;;5.30;2.80;;;29.20;61.60;;;;;;10060762;28;20392;-60
2023/07/10 23:13:16;;;;;;;6.30;2.90;;;29.20;61.80;;;;;;10048032;28;20033;-62
2023/07/10 23:18:09;;;;;;;5.57;3.50;;;29.10;61.90;;;;;;10050547;28;20021;-61
2023/07/10 23:22:59;;;;;;;4.65;2.85;;;29.00;62.00;;;;;;10060189;28;20040;-61
2023/07/10 23:27:50;;;;;;;4.28;2.72;;;28.90;62.30;;;;;;10062844;28;20044;-59
2023/07/10 23:32:41;;;;;;;7.45;2.95;;;28.90;62.40;;;;;;10068825;28;20128;-61
2023/07/10 23:37:32;;;;;;;9.00;3.42;;;28.60;62.90;;;;;;10056555;28;20574;-60
2023/07/10 23:42:23;;;;;;;4.65;2.50;;;28.50;63.30;;;;;;10064532;28;20028;-59
2023/07/10 23:47:14;;;;;;;4.55;2.67;;;28.50;64.10;;;;;;10062852;28;20038;-60
2023/07/10 23:52:05;;;;;;;7.82;3.85;;;28.30;63.70;;;;;;10055457;28;20044;-60
2023/07/10 23:56:55;;;;;;;3.13;2.10;;;28.10;63.90;;;;;;10069391;28;20025;-62
